Forney's Hourly Summary for Thursday, May 10, 2018
Hour Temp
(f)
RH
(%)
Solar Rad.
(MJ/m2)
Rainfall
(in)
Wind
(mph)
5/10/2018 12:00 AM 71 61 0 0 1.2
5/10/2018 1:00 AM 71 55 0 0 3.08
5/10/2018 2:00 AM 71 56 0 0 4.26
5/10/2018 3:00 AM 69 57 0 0 4.41
5/10/2018 4:00 AM 67 60 0 0 4.85
5/10/2018 5:00 AM 65 63 0 0 4.37
5/10/2018 6:00 AM 64 68 0 0 3.5
5/10/2018 7:00 AM 62 74 0.03 0 1.43
5/10/2018 8:00 AM 63 78 0.51 0 2.61
5/10/2018 9:00 AM 67 75 1.23 0 5.57
5/10/2018 10:00 AM 71 64 1.9 0 5.23
5/10/2018 11:00 AM 75 54 2.35 0 5.5
5/10/2018 12:00 PM 78 52 2.84 0 5.03
5/10/2018 1:00 PM 79 48 3.09 0 5.79
5/10/2018 2:00 PM 81 43 3.14 0 7.23
5/10/2018 3:00 PM 83 40 3.01 0 6.99
5/10/2018 4:00 PM 84 40 2.58 0 6.25
5/10/2018 5:00 PM 84 41 1.95 0 5.88
5/10/2018 6:00 PM 83 43 1.46 0 5.6
5/10/2018 7:00 PM 83 42 0.85 0 5.75
5/10/2018 8:00 PM 81 43 0.13 0 4.62
5/10/2018 9:00 PM 78 47 0.01 0 2.3
5/10/2018 10:00 PM 75 55 0 0 1.46
5/10/2018 11:00 PM 73 61 0 0 1.97
Data Summary 74 55 25.08 0.00 4.37